Emil Dyakov

Recruteur - Levski
9 Juil 2028
Dimanche
Processus

Personnalité

Adaptabilité (14) Ambition (2) Controverse (11) Loyauté (7) Pression (3) Professionnalisme (14) Sportivité (18) Tempérament (2)

Profil

Style d'entraînement Démocratique
Diplôme Continental Pro
Détermination 11
Gestion des joueurs 10
Motivation 10
Discipline 12
Satisfaction professionnelle
63%
Fatigue
0%
Rôle Recruteur
Salaire 28.2K p/s
Contrat 14.03.2029

Performance

Comportement Bon
Efficacité de l'entraînement
28%
Développement des joueurs
35%
Prévention des blessures
45%
Mise en place tactique
45%

Événements récents

A participé à une réunion de recrutement maintenant
A recommandé une cible de transfert maintenant
A recommandé une cible de transfert maintenant
A recommandé une cible de transfert maintenant
A recommandé une cible de transfert maintenant
A recommandé une cible de transfert maintenant
A recommandé une cible de transfert maintenant
A recommandé une cible de transfert maintenant

Suivi en cours

123
Joueur Club Statut Capacité Confiance Observé Dernière observation Dernier vote
Lucas Camejo River Plate Actif 97 / 82 40% 8 08.07.2028 -
Tyler Fletcher Rotherham United Actif 110 / 120 40% 8 08.07.2028 -
Diego Vargas Universidad de Concepcion Actif 79 / 106 40% 3 07.07.2028 -
Owen Foye Swindon Town Actif 87 / 97 40% 1 07.07.2028 -
Miguel Figueiredo Benfica Actif 131 / 123 40% 4 03.07.2028 -
Thulani Manyama SuperSport United Actif 121 / 129 40% 6 03.07.2028 -
Tobiáš Pališčák Zlin Actif 97 / 107 40% 6 01.07.2028 -
Stanislav Bukatov Salyut Actif 84 / 80 40% 1 01.07.2028 -
Riquelme Thompson-Jones Accrington Stanley Actif 117 / 121 40% 8 29.06.2028 -
Lamine Bèye Portimonense Actif 116 / 122 40% 1 29.06.2028 -
Amine Boukamir Charleroi Actif 110 / 115 40% 5 28.06.2028 -
Makar Vysochenko Spartak Moscow Actif 99 / 105 40% 2 28.06.2028 -
Dmytro Strilchuk Podillia Actif 96 / 98 40% 4 24.06.2028 -
Adnan Nainggolan KV Oostende Actif 112 / 115 40% 7 23.06.2028 -
Kamaldeen Atiemo Wa All Stars Actif 108 / 113 40% 3 23.06.2028 -
Kubrat Onasci Septemvri Actif 114 / 104 40% 4 22.06.2028 -
Olivier Leroux Mouscron Actif 103 / 113 40% 5 22.06.2028 -
Kirill Kistenev Botev Vratsa Actif 80 / 100 40% 3 21.06.2028 -
Cheveyo Tsawa Club Brugge Actif 123 / 131 40% 2 20.06.2028 -
Nicolò Moranduzzo Renate Actif 86 / 97 40% 1 20.06.2028 -
José Martínes CSKA 1948 Actif 113 / 118 58% 1 19.06.2028 -
Kiani Inge Groningen Actif 121 / 118 40% 6 16.06.2028 -
Josh Nichols Oldham Athletic Actif 120 / 130 40% 9 12.06.2028 -
Artem Nosachev Spartak Moscow Actif 88 / 87 40% 1 12.06.2028 -
Martim Cunha Porto Actif 110 / 120 40% 7 11.06.2028 -
Itumeleng Jali Spezia Actif 110 / 121 40% 4 10.06.2028 -
Bernardo Lima Porto Actif 108 / 123 40% 7 09.06.2028 -
George Evans Exeter City Actif 112 / 120 40% 1 07.06.2028 -
Augusto Bando Ascoli Actif 107 / 123 40% 3 06.06.2028 -
Daniel Banjaqui Benfica Actif 130 / 126 40% 5 03.06.2028 -
Peter Shalulile Mamelodi Sundowns Actif 128 / 128 67% 1 01.06.2028 Approuver
Oswin Appollis Orlando Pirates Actif 120 / 121 66% 1 01.06.2028 Approuver
Marcelo Allende Mamelodi Sundowns Rapport prêt 129 / 129 67% 1 01.06.2028 Approuver
Itumeleng Vilakazi Jubilo Iwata Rapport prêt 108 / 108 66% 1 01.06.2028 -
Alejandro Rincon Llaneros Actif 102 / 102 66% 1 01.06.2028 Approuver
Joe Walsh Queens Park Rangers Actif 117 / 124 40% 1 01.06.2028 -
Lukas Jensen Millwall Actif 134 / 124 40% 1 01.06.2028 -
Robert Cook Accrington Stanley Actif 116 / 120 40% 1 31.05.2028 -
Alfie Whiteman Newport County Perdu 123 / 109 40% 1 31.05.2028 -
Abubakar Adams Aduana Stars Actif 92 / 90 40% 1 27.05.2028 -
Thijs Kraaijeveld USM Alger Actif 126 / 129 40% 3 26.05.2028 -
Jan Bürger Northampton Town Actif 112 / 128 40% 4 25.05.2028 -
Musa Danjuma Umraniyespor Actif 85 / 103 40% 3 25.05.2028 -
Andrea Cogoni Cosenza Actif 115 / 121 40% 1 21.05.2028 -
Jorthy Mokio ADO Den Haag Actif 136 / 136 40% 5 18.05.2028 -
Joel Ezra Enyimba Actif 93 / 100 40% 7 17.05.2028 -
Federico Matarán Giana Erminio Actif 99 / 111 40% 3 16.05.2028 -
Tobías Ramírez River Plate Actif 113 / 140 40% 1 10.05.2028 -
Andrey Ivlev Nizhniy Novgorod Actif 104 / 124 40% 4 09.05.2028 -
Khama Mabunda Platinum Stars Actif 72 / 79 40% 2 07.05.2028 -
Simone Suppa Virtus Verona Actif 78 / 96 40% 1 06.05.2028 -
Kwesi Sorotu Badori Berekum Chelsea Actif 103 / 101 40% 1 30.04.2028 -
Bence Szakos Aris Actif 106 / 98 40% 1 26.04.2028 -
Dmitry Pestryakov Krasnodar Actif 122 / 125 40% 2 23.04.2028 -
Esquerdinha Notts County Actif 119 / 126 40% 5 17.02.2028 -
Teboho Mokoena Black Aces Actif 74 / 87 40% 1 13.02.2028 -
Matvey Bardachev Zenit Actif 99 / 115 40% 3 12.02.2028 -
Lucas Nicol Mjondalen Actif 84 / 92 40% 1 09.02.2028 -
Zane Albarus Shrewsbury Town Actif 97 / 106 40% 5 03.02.2028 -
Pedro Soma San Diego Football Club Actif 120 / 113 40% 4 30.01.2028 -
Jamie Wähling Hibernians Actif 95 / 93 40% 1 28.01.2028 -
Ivan Borges Defensores Actif 91 / 83 40% 3 25.01.2028 -
Victor Hernandez Santa Fe Actif 135 / 131 40% 20 19.01.2028 -
Colin Guske Orlando City Actif 97 / 102 40% 3 16.01.2028 -
Sebastián Ramírez Aguilas Doradas Actif 107 / 124 40% 6 12.01.2028 -
Nazareno Roselli Defensa y Justicia Actif 110 / 116 40% 3 09.01.2028 -
Ignacio Fernández Boston River Actif 98 / 106 40% 3 04.01.2028 -
Hosea Michael Remo Stars Actif 99 / 92 40% 4 09.12.2027 -
Matias Siltanen Malmo FF Actif 139 / 120 40% 3 01.12.2027 -
Gideon Manaseh Ikorodu City Actif 93 / 101 40% 3 29.11.2027 -
Nejc Viher NK Maribor Actif 120 / 123 40% 1 29.11.2027 -
Celías Ingenthron Platense Actif 128 / 132 40% 1 26.11.2027 -
David Damboama El-Kanemi Warriors Actif 94 / 89 40% 5 22.11.2027 -
Onyeuche Ujunwa Ikorodu City Actif 99 / 96 40% 2 22.11.2027 -
Yury Oyarzo Racing Actif 93 / 92 40% 4 20.11.2027 -
Björn Hedlöf Helsingborg Actif 92 / 113 40% 2 18.11.2027 -
Jonny Shore New York City Actif 87 / 101 40% 2 17.11.2027 -
Juan Camilo Córdoba Deportivo Pereira Actif 79 / 87 40% 2 15.11.2027 -
Daniel Idoko Ikorodu City Actif 94 / 101 40% 4 12.11.2027 -
Mohamed Moussa Koïta Mathare United Actif 90 / 92 40% 2 10.11.2027 -
Godwin Oham Warri Wolves Actif 94 / 94 40% 9 06.11.2027 -
Óscar Hinojosa Metropolitanos Actif 90 / 80 40% 2 05.11.2027 -
Jan Cedilnik Chikhura Actif 77 / 79 40% 1 05.11.2027 -
Oscar Steinke Brånby Hammarby Actif 111 / 101 40% 2 31.10.2027 -
Dato Chakvetadze Zugdidi Actif 95 / 100 40% 2 19.10.2027 -
Jon Esenga IF Elfsborg Actif 86 / 91 40% 2 14.10.2027 -
Chibueze Oputa Rangers International Actif 97 / 94 40% 2 09.10.2027 -
Francisco Machis Llaneros Actif 74 / 84 40% 2 05.10.2027 -
Issa Yusuf Shooting Stars Actif 85 / 93 40% 4 04.10.2027 -
Drew Baiera New York City Actif 95 / 93 40% 1 26.09.2027 -
Alejandro Leiva Patronato Actif 108 / 95 40% 1 21.09.2027 -
Juan Diego Perdomo Depor Actif 98 / 96 40% 1 18.09.2027 -
Facundo Balatti Penarol Actif 90 / 103 40% 1 16.09.2027 -
Jacob Wright Norwich City Actif 129 / 127 40% 2 14.09.2027 -
Vadim Arutyunyan Dnepr Mogilev Actif 79 / 100 40% 1 31.08.2027 -
Ángel Aguayo Sol de America Actif 100 / 103 40% 1 30.08.2027 -
Adam Boufandar Pro Vercelli Actif 84 / 96 40% 1 20.08.2027 -
Ronan Kpakio AC Milan Actif 118 / 122 40% 2 19.08.2027 -
Vittorio Magni Cesena Actif 113 / 111 40% 2 17.08.2027 -
George Hoddle Cambridge United Actif 79 / 87 40% 2 06.08.2027 -
Pedro Vian Seewald Dolomiti Bellunesi Actif 96 / 105 40% 3 05.08.2027 -
Daniel Dennis Ikorodu City Actif 92 / 95 40% 1 04.08.2027 -
Edwin Asamoah Berekum Chelsea Actif 95 / 88 40% 3 30.07.2027 -
Sascha Britschgi AC Milan Actif 131 / 125 40% 3 24.07.2027 -
Tiago Freitas Benfica Actif 121 / 117 40% 2 23.07.2027 -
Jenson Jones Walsall Actif 92 / 106 40% 2 23.07.2027 -
Gady Beyuku Blackburn Rovers Actif 113 / 121 40% 1 22.07.2027 -
Olalekan Adeleke Remo Stars Actif 97 / 99 40% 2 20.07.2027 -
Maldini Kacurri Grimsby Town Actif 94 / 106 40% 1 20.07.2027 -
Kazunari Kita Real Sociedad Actif 91 / 103 40% 3 17.07.2027 -
Eliás Montiel Borussia Dortmund Actif 141 / 140 40% 2 03.07.2027 -
Matteo Cichella Frosinone Actif 127 / 128 40% 1 30.06.2027 -
Konta Ismaily Actif 78 / 98 40% 2 23.06.2027 -
Gonçalo Oliveira Benfica Actif 106 / 112 40% 2 13.06.2027 -
Mpho Khethang FC Diarra Actif 77 / 86 40% 1 12.06.2027 -
Leandro Martins Benfica Actif 87 / 102 40% 1 07.06.2027 -
Rhys Walters Port Vale Actif 106 / 109 40% 1 02.06.2027 -
Matej Poplatnik Actif 113 / 113 66% 1 01.06.2027 Approuver
Luciano Gondou Chelsea Actif 127 / 128 67% 1 01.06.2027 -
Reda Khadra Qarabag Actif 129 / 130 66% 1 01.06.2027 Approuver
Bongani Khune SuperSport United Actif 128 / 128 68% 1 01.06.2027 Approuver
Berna CSKA 1948 Actif 118 / 116 51% 1 01.06.2027 -
Bade Aluko Leicester City Actif 108 / 121 40% 1 31.05.2027 -